createdAt,value
2022-11-07T00:00:37.391Z,10.50
2022-11-07T00:03:04.493Z,10.47
2022-11-07T00:05:31.475Z,10.45
2022-11-07T00:07:58.264Z,10.42
2022-11-07T00:10:25.148Z,10.40
2022-11-07T00:12:52.020Z,10.38
2022-11-07T00:15:21.191Z,10.36
2022-11-07T00:17:48.114Z,10.35
2022-11-07T00:20:15.156Z,10.34
2022-11-07T00:22:43.048Z,10.33
2022-11-07T00:25:09.837Z,10.33
2022-11-07T00:27:36.868Z,10.32
2022-11-07T00:30:04.427Z,10.32
2022-11-07T00:32:31.376Z,10.32
2022-11-07T00:34:59.929Z,10.33
2022-11-07T00:37:26.985Z,10.33
2022-11-07T00:39:53.835Z,10.34
2022-11-07T00:42:20.721Z,10.35
2022-11-07T00:44:47.562Z,10.36
2022-11-07T00:47:15.671Z,10.36
2022-11-07T00:49:42.530Z,10.36
2022-11-07T00:52:12.009Z,10.36
2022-11-07T00:54:40.726Z,10.36
2022-11-07T00:57:07.920Z,10.37
2022-11-07T00:59:36.238Z,10.37
2022-11-07T01:02:10.976Z,10.38
2022-11-07T01:04:56.926Z,10.39
2022-11-07T01:07:24.148Z,10.39
2022-11-07T01:09:59.749Z,10.40
2022-11-07T01:12:28.518Z,10.39
2022-11-07T01:14:57.446Z,10.40
2022-11-07T01:17:24.907Z,10.40
2022-11-07T01:20:00.989Z,10.40
2022-11-07T01:22:41.630Z,10.39
2022-11-07T01:25:15.931Z,10.40
2022-11-07T01:27:45.239Z,10.41
2022-11-07T01:30:18.021Z,10.42
2022-11-07T01:32:46.459Z,10.42
2022-11-07T01:35:14.579Z,10.42
2022-11-07T01:37:41.734Z,10.42
2022-11-07T01:40:09.377Z,10.42
2022-11-07T01:42:39.202Z,10.41
2022-11-07T01:45:06.686Z,10.40
2022-11-07T01:47:38.129Z,10.39
2022-11-07T01:50:13.553Z,10.38
2022-11-07T01:52:47.171Z,10.38
2022-11-07T01:55:19.093Z,10.38
2022-11-07T01:58:00.602Z,10.39
2022-11-07T02:00:29.014Z,10.39
2022-11-07T02:03:05.312Z,10.40
2022-11-07T02:06:03.214Z,10.41
2022-11-07T02:08:36.617Z,10.41
2022-11-07T02:11:07.737Z,10.42
2022-11-07T02:13:35.937Z,10.42
2022-11-07T02:16:08.225Z,10.42
2022-11-07T02:18:42.139Z,10.42
2022-11-07T02:21:22.577Z,10.43
2022-11-07T02:24:10.613Z,10.43
2022-11-07T02:26:38.168Z,10.43
2022-11-07T02:29:08.918Z,10.43
2022-11-07T02:31:35.763Z,10.44
2022-11-07T02:34:02.997Z,10.43
2022-11-07T02:36:33.021Z,10.43
2022-11-07T02:39:00.247Z,10.44
2022-11-07T02:41:33.113Z,10.44
2022-11-07T02:44:12.016Z,10.42
2022-11-07T02:46:40.028Z,10.43
2022-11-07T02:49:07.071Z,10.43
2022-11-07T02:51:34.070Z,10.43
2022-11-07T02:54:01.109Z,10.43
2022-11-07T02:56:32.179Z,10.41
2022-11-07T02:59:06.711Z,10.40
2022-11-07T03:01:38.928Z,10.41
2022-11-07T03:04:07.217Z,10.40
2022-11-07T03:06:34.370Z,10.40
2022-11-07T03:09:17.635Z,10.40
2022-11-07T03:12:19.680Z,10.37
2022-11-07T03:14:48.033Z,10.33
2022-11-07T03:17:15.560Z,10.27
2022-11-07T03:19:52.314Z,10.21
2022-11-07T03:22:19.688Z,10.20
2022-11-07T03:25:10.578Z,10.20
2022-11-07T03:28:13.203Z,10.19
2022-11-07T03:30:51.560Z,10.18
2022-11-07T03:33:47.160Z,10.18
2022-11-07T03:36:50.714Z,10.18
2022-11-07T03:39:42.628Z,10.18
2022-11-07T03:42:20.583Z,10.18
2022-11-07T03:48:03.472Z,10.16
2022-11-07T03:48:21.658Z,10.17
2022-11-07T03:50:30.742Z,10.16
2022-11-07T03:53:01.576Z,10.17
2022-11-07T03:55:43.899Z,10.18
2022-11-07T03:58:56.290Z,10.18
2022-11-07T04:01:31.965Z,10.19
2022-11-07T04:04:00.382Z,10.19
2022-11-07T04:06:32.515Z,10.18
2022-11-07T04:09:00.061Z,10.18
2022-11-07T04:11:50.525Z,10.18
2022-11-07T04:14:36.495Z,10.19
2022-11-07T04:17:18.729Z,10.21
2022-11-07T04:19:55.293Z,10.22
2022-11-07T04:22:30.235Z,10.23
2022-11-07T04:25:17.155Z,10.25
2022-11-07T04:27:57.343Z,10.25
2022-11-07T04:30:27.886Z,10.28
2022-11-07T04:33:04.665Z,10.30
2022-11-07T04:35:37.672Z,10.32
2022-11-07T04:38:09.996Z,10.33
2022-11-07T04:40:44.791Z,10.33
2022-11-07T04:43:38.297Z,10.33
2022-11-07T04:46:58.888Z,10.33
2022-11-07T04:49:36.364Z,10.33
2022-11-07T04:52:06.910Z,10.34
2022-11-07T04:55:13.520Z,10.34
2022-11-07T04:57:55.738Z,10.33
2022-11-07T05:00:32.307Z,10.30
2022-11-07T05:03:04.438Z,10.30
2022-11-07T05:05:57.184Z,10.32
2022-11-07T05:09:20.074Z,10.33
2022-11-07T05:12:00.351Z,10.33
2022-11-07T05:18:34.950Z,10.29
2022-11-07T05:21:17.896Z,10.28
2022-11-07T05:23:44.909Z,10.29
2022-11-07T05:26:18.964Z,10.30
2022-11-07T05:28:45.966Z,10.32
2022-11-07T05:31:17.359Z,10.32
2022-11-07T05:34:04.961Z,10.30
2022-11-07T05:40:27.796Z,10.16
2022-11-07T05:43:02.206Z,10.11
2022-11-07T05:45:59.424Z,10.05
2022-11-07T05:48:44.848Z,10.00
2022-11-07T05:51:11.798Z,9.96
2022-11-07T05:53:38.842Z,9.91
2022-11-07T05:56:16.000Z,9.89
2022-11-07T05:58:48.734Z,9.86
2022-11-07T06:01:15.906Z,9.83
2022-11-07T06:03:42.766Z,9.84
2022-11-07T06:06:47.017Z,9.86
2022-11-07T06:09:17.955Z,9.82
2022-11-07T06:11:53.312Z,9.78
2022-11-07T06:14:20.351Z,9.75
2022-11-07T06:16:47.561Z,9.72
2022-11-07T06:20:05.153Z,9.69
2022-11-07T06:22:32.421Z,9.67
2022-11-07T06:24:59.425Z,9.64
2022-11-07T06:27:30.255Z,9.65
2022-11-07T06:29:57.319Z,9.68
2022-11-07T06:32:46.162Z,9.73
2022-11-07T06:35:13.782Z,9.79
2022-11-07T06:37:49.394Z,9.83
2022-11-07T06:40:16.590Z,9.86
2022-11-07T06:42:43.888Z,9.92
2022-11-07T06:45:23.009Z,9.98
2022-11-07T06:47:54.994Z,10.04
2022-11-07T06:50:22.272Z,10.08
2022-11-07T06:52:49.303Z,10.10
2022-11-07T06:55:17.350Z,10.13
2022-11-07T06:57:46.041Z,10.17
2022-11-07T07:00:23.222Z,10.19
2022-11-07T07:03:01.222Z,10.21
2022-11-07T07:05:35.058Z,10.19
2022-11-07T07:08:02.628Z,10.19
2022-11-07T07:10:37.439Z,10.23
2022-11-07T07:13:04.752Z,10.29
2022-11-07T07:15:49.838Z,10.35
2022-11-07T07:18:22.647Z,10.41
2022-11-07T07:21:01.172Z,10.49
2022-11-07T07:23:41.527Z,10.58
2022-11-07T07:26:17.837Z,10.66
2022-11-07T07:29:02.965Z,10.72
2022-11-07T07:31:31.746Z,10.78
2022-11-07T07:33:58.963Z,10.85
2022-11-07T07:36:35.178Z,10.89
2022-11-07T07:39:02.496Z,10.97
2022-11-07T07:41:42.038Z,11.04
2022-11-07T07:44:18.833Z,11.10
2022-11-07T07:46:55.215Z,11.15
2022-11-07T07:49:21.954Z,11.16
2022-11-07T07:51:49.253Z,11.17
2022-11-07T07:54:16.341Z,11.19
2022-11-07T07:56:45.706Z,11.23
2022-11-07T07:59:16.566Z,11.27
2022-11-07T08:01:43.925Z,11.30
2022-11-07T08:04:28.069Z,11.34
2022-11-07T08:06:59.576Z,11.35
2022-11-07T08:09:27.735Z,11.36
2022-11-07T08:11:55.179Z,11.36
2022-11-07T08:14:23.143Z,11.38
2022-11-07T08:16:52.662Z,11.43
2022-11-07T08:19:24.558Z,11.47
2022-11-07T08:23:20.536Z,11.54
2022-11-07T08:25:20.757Z,11.60
2022-11-07T08:28:11.889Z,11.64
2022-11-07T08:31:39.483Z,11.68
2022-11-07T08:34:31.685Z,11.69
2022-11-07T08:37:55.588Z,11.71
2022-11-07T08:40:47.390Z,11.71
2022-11-07T08:44:01.731Z,11.71
2022-11-07T08:46:58.657Z,11.65
2022-11-07T08:50:22.471Z,11.53
2022-11-07T08:52:49.653Z,11.47
2022-11-07T08:55:22.798Z,11.46
2022-11-07T08:57:49.733Z,11.47
2022-11-07T09:00:42.532Z,11.49
2022-11-07T09:06:17.656Z,11.47
2022-11-07T09:08:49.648Z,11.45
2022-11-07T09:11:31.820Z,11.47
2022-11-07T09:14:37.183Z,11.49
2022-11-07T09:18:06.360Z,11.50
2022-11-07T09:21:08.977Z,11.51
2022-11-07T09:24:12.193Z,11.53
2022-11-07T09:26:51.387Z,11.58
2022-11-07T09:29:36.872Z,11.65
2022-11-07T09:32:43.170Z,11.72
2022-11-07T09:35:40.562Z,11.79
2022-11-07T09:42:26.597Z,11.91
2022-11-07T09:45:16.499Z,11.97
2022-11-07T09:48:23.954Z,12.02
2022-11-07T09:51:50.070Z,12.05
2022-11-07T09:54:22.193Z,12.10
2022-11-07T09:56:53.966Z,12.15
2022-11-07T09:59:47.571Z,12.21
2022-11-07T10:02:42.422Z,12.26
2022-11-07T10:05:59.951Z,12.29
2022-11-07T10:08:54.925Z,12.29
2022-11-07T10:11:43.542Z,12.27
2022-11-07T10:14:34.542Z,12.28
2022-11-07T10:17:38.422Z,12.26
2022-11-07T10:20:41.935Z,12.23
2022-11-07T10:23:46.636Z,12.17
2022-11-07T10:26:16.192Z,12.12
2022-11-07T10:29:10.445Z,12.06
2022-11-07T10:32:18.684Z,11.96
2022-11-07T10:35:14.631Z,11.83
2022-11-07T10:37:41.584Z,11.77
2022-11-07T10:40:21.101Z,11.77
2022-11-07T10:42:49.375Z,11.74
2022-11-07T10:45:17.789Z,11.69
2022-11-07T10:48:03.495Z,11.57
2022-11-07T10:50:31.277Z,11.44
2022-11-07T10:53:09.170Z,11.37
2022-11-07T10:55:45.301Z,11.34
2022-11-07T10:58:26.451Z,11.34
2022-11-07T11:01:02.356Z,11.37
2022-11-07T11:03:43.249Z,11.40
2022-11-07T11:06:15.399Z,11.44
2022-11-07T11:08:42.137Z,11.48
2022-11-07T11:11:26.140Z,11.51
2022-11-07T11:14:10.743Z,11.55
2022-11-07T11:16:40.794Z,11.64
2022-11-07T11:19:26.382Z,11.72
2022-11-07T11:21:56.757Z,11.77
2022-11-07T11:24:23.424Z,11.80
2022-11-07T11:26:55.356Z,11.83
2022-11-07T11:30:06.294Z,11.85
2022-11-07T11:32:51.903Z,11.86
2022-11-07T11:35:44.762Z,11.83
2022-11-07T11:38:21.035Z,11.80
2022-11-07T11:41:01.546Z,11.78
2022-11-07T11:44:04.379Z,11.76
2022-11-07T11:46:51.363Z,11.74
2022-11-07T11:49:27.641Z,11.70
2022-11-07T11:52:03.010Z,11.67
2022-11-07T11:54:29.813Z,11.64
2022-11-07T11:57:04.035Z,11.62
2022-11-07T11:59:49.836Z,11.62
2022-11-07T12:02:22.645Z,11.61
2022-11-07T12:05:16.900Z,11.60
2022-11-07T12:08:16.344Z,11.57
2022-11-07T12:11:15.884Z,11.55
2022-11-07T12:14:01.700Z,11.52
2022-11-07T12:17:05.411Z,11.46
2022-11-07T12:19:46.464Z,11.36
2022-11-07T12:22:35.566Z,11.27
2022-11-07T12:25:10.793Z,11.13
2022-11-07T12:27:40.707Z,11.05
2022-11-07T12:30:24.005Z,10.99
2022-11-07T12:33:11.477Z,10.92
2022-11-07T12:35:52.292Z,10.88
2022-11-07T12:38:52.076Z,10.85
2022-11-07T12:41:26.947Z,10.81
2022-11-07T12:44:04.247Z,10.77
2022-11-07T12:46:49.344Z,10.75
2022-11-07T12:49:37.574Z,10.72
2022-11-07T12:52:19.138Z,10.72
2022-11-07T12:55:00.642Z,10.70
2022-11-07T12:57:31.604Z,10.67
2022-11-07T13:00:06.555Z,10.63
2022-11-07T13:02:44.988Z,10.62
2022-11-07T13:05:36.044Z,10.65
2022-11-07T13:08:21.105Z,10.63
2022-11-07T13:10:58.901Z,10.58
2022-11-07T13:13:39.545Z,10.56
2022-11-07T13:16:28.989Z,10.52
2022-11-07T13:19:10.499Z,10.50
2022-11-07T13:21:48.646Z,10.52
2022-11-07T13:24:21.777Z,10.52
2022-11-07T13:26:49.471Z,10.53
2022-11-07T13:29:34.147Z,10.57
2022-11-07T13:32:12.603Z,10.61
2022-11-07T13:34:58.522Z,10.65
2022-11-07T13:37:35.946Z,10.67
2022-11-07T13:40:26.345Z,10.69
2022-11-07T13:43:01.941Z,10.71
2022-11-07T13:45:33.468Z,10.72
2022-11-07T13:48:09.338Z,10.73
2022-11-07T13:50:42.932Z,10.75
2022-11-07T13:53:23.211Z,10.76
2022-11-07T13:56:08.490Z,10.79
2022-11-07T13:58:41.053Z,10.81
2022-11-07T14:01:12.498Z,10.84
2022-11-07T14:03:39.400Z,10.85
2022-11-07T14:06:28.473Z,10.86
2022-11-07T14:08:58.073Z,10.86
2022-11-07T14:11:25.128Z,10.87
2022-11-07T14:13:53.731Z,10.87
2022-11-07T14:16:23.917Z,10.86
2022-11-07T14:18:58.850Z,10.86
2022-11-07T14:21:31.491Z,10.85
2022-11-07T14:24:01.232Z,10.85
2022-11-07T14:26:32.991Z,10.85
2022-11-07T14:29:01.451Z,10.85
2022-11-07T14:31:31.771Z,10.84
2022-11-07T14:34:16.573Z,10.84
2022-11-07T14:36:59.231Z,10.84
2022-11-07T14:39:28.747Z,10.85
2022-11-07T14:41:59.796Z,10.84
2022-11-07T14:44:53.291Z,10.85
2022-11-07T14:47:34.562Z,10.85
2022-11-07T14:50:03.593Z,10.84
2022-11-07T14:52:36.261Z,10.82
2022-11-07T14:55:05.641Z,10.82
2022-11-07T14:57:39.165Z,10.81
2022-11-07T15:00:08.267Z,10.80
2022-11-07T15:02:38.654Z,10.80
2022-11-07T15:05:11.105Z,10.81
2022-11-07T15:07:49.127Z,10.81
2022-11-07T15:10:27.679Z,10.80
2022-11-07T15:12:57.693Z,10.79
2022-11-07T15:15:30.505Z,10.78
2022-11-07T15:18:01.103Z,10.79
2022-11-07T15:20:32.793Z,10.81
2022-11-07T15:23:28.584Z,10.81
2022-11-07T15:26:09.368Z,10.81
2022-11-07T15:28:42.014Z,10.79
2022-11-07T15:31:23.866Z,10.78
2022-11-07T15:33:52.298Z,10.78
2022-11-07T15:36:18.916Z,10.77
2022-11-07T15:38:47.522Z,10.77
2022-11-07T15:41:18.729Z,10.78
2022-11-07T15:43:45.462Z,10.79
2022-11-07T15:46:23.003Z,10.79
2022-11-07T15:48:49.820Z,10.78
2022-11-07T15:51:16.642Z,10.77
2022-11-07T15:53:44.796Z,10.77
2022-11-07T15:56:14.808Z,10.77
2022-11-07T15:58:42.086Z,10.76
2022-11-07T16:01:09.412Z,10.77
2022-11-07T16:03:36.185Z,10.78
2022-11-07T16:06:30.105Z,10.79
2022-11-07T16:08:57.861Z,10.80
2022-11-07T16:11:27.495Z,10.81
2022-11-07T16:14:21.597Z,10.82
2022-11-07T16:16:48.791Z,10.83
2022-11-07T16:19:18.939Z,10.85
2022-11-07T16:21:50.902Z,10.86
2022-11-07T16:24:17.783Z,10.86
2022-11-07T16:26:48.127Z,10.86
2022-11-07T16:29:15.462Z,10.86
2022-11-07T16:31:42.486Z,10.86
2022-11-07T16:34:10.538Z,10.86
2022-11-07T16:36:38.768Z,10.85
2022-11-07T16:39:19.384Z,10.85
2022-11-07T16:41:47.459Z,10.84
2022-11-07T16:44:26.221Z,10.84
2022-11-07T16:46:55.393Z,10.85
2022-11-07T16:49:33.208Z,10.85
2022-11-07T16:52:27.495Z,10.84
2022-11-07T16:55:04.384Z,10.81
2022-11-07T16:57:36.116Z,10.81
2022-11-07T17:00:03.895Z,10.80
2022-11-07T17:02:30.751Z,10.79
2022-11-07T17:04:57.513Z,10.78
2022-11-07T17:07:24.099Z,10.77
2022-11-07T17:09:50.836Z,10.76
2022-11-07T17:12:21.098Z,10.75
2022-11-07T17:14:50.954Z,10.75
2022-11-07T17:17:18.107Z,10.75
2022-11-07T17:19:44.707Z,10.76
2022-11-07T17:22:12.946Z,10.74
2022-11-07T17:24:42.351Z,10.74
2022-11-07T17:27:22.957Z,10.74
2022-11-07T17:29:50.906Z,10.74
2022-11-07T17:32:17.505Z,10.71
2022-11-07T17:34:44.308Z,10.70
2022-11-07T17:37:17.432Z,10.68
2022-11-07T17:39:45.120Z,10.67
2022-11-07T17:42:14.758Z,10.66
2022-11-07T17:44:41.631Z,10.65
2022-11-07T17:47:34.532Z,10.65
2022-11-07T17:50:01.875Z,10.66
2022-11-07T17:52:29.830Z,10.66
2022-11-07T17:54:56.442Z,10.66
2022-11-07T17:57:26.250Z,10.66
2022-11-07T17:59:52.903Z,10.67
2022-11-07T18:02:19.992Z,10.66
2022-11-07T18:04:47.320Z,10.66
2022-11-07T18:07:14.180Z,10.65
2022-11-07T18:09:41.211Z,10.65
2022-11-07T18:12:09.752Z,10.65
2022-11-07T18:14:36.672Z,10.63
2022-11-07T18:17:04.700Z,10.61
2022-11-07T18:19:31.573Z,10.57
2022-11-07T18:21:58.729Z,10.54
2022-11-07T18:24:25.479Z,10.52
2022-11-07T18:26:53.025Z,10.50
2022-11-07T18:29:20.017Z,10.48
2022-11-07T18:31:49.021Z,10.47
2022-11-07T18:34:15.637Z,10.49
2022-11-07T18:36:44.048Z,10.48
2022-11-07T18:39:21.227Z,10.47
2022-11-07T18:41:50.112Z,10.46
2022-11-07T18:44:17.962Z,10.45
2022-11-07T18:46:45.648Z,10.45
2022-11-07T18:49:14.446Z,10.45
2022-11-07T18:51:43.318Z,10.45
2022-11-07T18:54:15.342Z,10.44
2022-11-07T18:56:43.051Z,10.44
2022-11-07T18:59:20.489Z,10.43
2022-11-07T19:01:49.673Z,10.43
2022-11-07T19:04:16.715Z,10.43
2022-11-07T19:06:57.648Z,10.43
2022-11-07T19:09:36.408Z,10.43
2022-11-07T19:12:04.499Z,10.43
2022-11-07T19:14:31.259Z,10.43
2022-11-07T19:16:57.877Z,10.43
2022-11-07T19:19:24.480Z,10.44
2022-11-07T19:21:51.188Z,10.44
2022-11-07T19:24:17.868Z,10.44
2022-11-07T19:26:44.556Z,10.44
2022-11-07T19:29:11.556Z,10.43
2022-11-07T19:31:38.640Z,10.43
2022-11-07T19:34:05.567Z,10.43
2022-11-07T19:36:32.799Z,10.43
2022-11-07T19:39:01.583Z,10.43
2022-11-07T19:41:28.258Z,10.42
2022-11-07T19:43:56.670Z,10.42
2022-11-07T19:46:24.025Z,10.42
2022-11-07T19:48:50.842Z,10.42
2022-11-07T19:51:24.204Z,10.43
2022-11-07T19:53:53.223Z,10.44
2022-11-07T19:56:20.058Z,10.46
2022-11-07T19:58:55.077Z,10.48
2022-11-07T20:01:27.878Z,10.50
2022-11-07T20:03:55.695Z,10.51
2022-11-07T20:06:49.644Z,10.52
2022-11-07T20:09:16.464Z,10.53
2022-11-07T20:11:43.115Z,10.54
2022-11-07T20:14:11.822Z,10.54
2022-11-07T20:16:38.669Z,10.55
2022-11-07T20:19:06.321Z,10.55
2022-11-07T20:21:33.959Z,10.54
2022-11-07T20:24:00.621Z,10.53
2022-11-07T20:26:29.655Z,10.52
2022-11-07T20:28:56.481Z,10.51
2022-11-07T20:31:29.161Z,10.51
2022-11-07T20:34:04.847Z,10.51
2022-11-07T20:36:36.428Z,10.51
2022-11-07T20:39:03.569Z,10.50
2022-11-07T20:41:30.729Z,10.50
2022-11-07T20:44:12.353Z,10.51
2022-11-07T20:46:45.334Z,10.51
2022-11-07T20:49:22.477Z,10.51
2022-11-07T20:51:51.928Z,10.51
2022-11-07T20:54:18.723Z,10.50
2022-11-07T20:56:45.875Z,10.49
2022-11-07T20:59:12.806Z,10.48
2022-11-07T21:01:39.662Z,10.48
2022-11-07T21:04:16.762Z,10.47
2022-11-07T21:06:44.064Z,10.46
2022-11-07T21:09:11.857Z,10.45
2022-11-07T21:12:04.651Z,10.44
2022-11-07T21:14:31.471Z,10.42
2022-11-07T21:16:58.221Z,10.41
2022-11-07T21:19:25.362Z,10.39
2022-11-07T21:22:05.669Z,10.37
2022-11-07T21:24:32.419Z,10.34
2022-11-07T21:26:59.154Z,10.31
2022-11-07T21:29:40.078Z,10.28
2022-11-07T21:32:08.060Z,10.26
2022-11-07T21:34:46.779Z,10.23
2022-11-07T21:37:23.763Z,10.20
2022-11-07T21:39:50.441Z,10.18
2022-11-07T21:42:17.626Z,10.15
2022-11-07T21:44:44.299Z,10.11
2022-11-07T21:47:11.071Z,10.08
2022-11-07T21:49:37.907Z,10.04
2022-11-07T21:52:06.031Z,9.99
2022-11-07T21:54:32.717Z,9.92
2022-11-07T21:56:59.737Z,9.86
2022-11-07T21:59:26.663Z,9.79
2022-11-07T22:01:55.754Z,9.72
2022-11-07T22:04:22.854Z,9.64
2022-11-07T22:06:51.119Z,9.57
2022-11-07T22:09:22.793Z,9.51
2022-11-07T22:11:49.838Z,9.45
2022-11-07T22:14:19.720Z,9.39
2022-11-07T22:16:47.942Z,9.33
2022-11-07T22:19:16.394Z,9.28
2022-11-07T22:21:45.891Z,9.23
2022-11-07T22:24:13.075Z,9.18
2022-11-07T22:26:40.479Z,9.13
2022-11-07T22:29:07.606Z,9.10
2022-11-07T22:31:37.652Z,9.06
2022-11-07T22:34:04.342Z,9.02
2022-11-07T22:36:30.981Z,8.99
2022-11-07T22:39:00.355Z,8.96
2022-11-07T22:41:28.745Z,8.92
2022-11-07T22:43:56.962Z,8.88
2022-11-07T22:46:27.611Z,8.84
2022-11-07T22:48:57.533Z,8.80
2022-11-07T22:51:30.741Z,8.75
2022-11-07T22:54:04.927Z,8.71
2022-11-07T22:56:34.581Z,8.67
2022-11-07T22:59:02.304Z,8.63
2022-11-07T23:01:32.909Z,8.60
2022-11-07T23:03:59.827Z,8.58
2022-11-07T23:06:28.357Z,8.56
2022-11-07T23:08:59.320Z,8.55
2022-11-07T23:11:47.512Z,8.54
2022-11-07T23:14:17.648Z,8.57
2022-11-07T23:16:50.491Z,8.62
2022-11-07T23:19:23.283Z,8.68
2022-11-07T23:21:52.674Z,8.75
2022-11-07T23:24:20.530Z,8.82
2022-11-07T23:26:47.904Z,8.87
2022-11-07T23:29:18.329Z,8.92
2022-11-07T23:31:52.825Z,8.96
2022-11-07T23:34:21.038Z,9.00
2022-11-07T23:36:51.806Z,9.04
2022-11-07T23:39:22.102Z,9.08
2022-11-07T23:41:51.960Z,9.11
2022-11-07T23:44:24.257Z,9.11
2022-11-07T23:47:54.866Z,9.10
2022-11-07T23:50:42.505Z,9.09
2022-11-07T23:53:29.168Z,9.12
2022-11-07T23:55:56.055Z,9.14
2022-11-07T23:58:41.394Z,9.16
